Ataun, Spain

6:37 AM CEST on May 30, 2017 (GMT +0200)
Diseminado rural 43 | | Change Station

Elev 696 ft 43.02 °N, 2.22 °W | Updated 3 minutes ago

Overcast
Overcast
59.8 °F
Feels Like 59.8 °F
N
0.0
Wind Variable Wind from South
Gusts 0.0 mph

Today
High -- | Low -- °F
--% Chance of Precip.
Yesterday
High -- | Low -- °F
Precip. -- in
Pressure 30.06 in
Visibility 6.2 miles
Clouds Scattered Clouds 1000 ft
Mostly Cloudy 2500 ft
Dew Point 58 °F
Humidity 95%
Rainfall 0.07 in
Snow Depth Not available.
6:33 AM 9:39 PM
Waxing Crescent, 26% visible
METAR LEVT 300430Z 36005KT 9999 SCT010 BKN025 14/13 Q1018
Pressure 30.06 in
Visibility 6.2 miles
Clouds Scattered Clouds 1000 ft
Mostly Cloudy 2500 ft
Dew Point 58 °F
Humidity 95%
Rainfall 0.07 in
Snow Depth Not available.
6:33 AM 9:39 PM
Waxing Crescent, 26% visible
METAR LEVT 300430Z 36005KT 9999 SCT010 BKN025 14/13 Q1018

Get Severe Weather Alerts

Thanks for signing up!

Be on the lookout for a verification email in your inbox.

You'll start receiving the daily forecast at 6 AM.

×

10-Day Weather Forecast

×

Almanac

Astronomy

May. 30, 2017 Rise Set
Actual Time
Civil Twilight
Nautical Twilight
Astronomical Twilight
Moon
Length of Visible Light
Length of Day
Tomorrow will be .
, % of the Moon is Illuminated

Today's Extremes

Country Highs Country Lows

Community

WunderPhotos

Category 6

Welcome to Category 6. This is the collective home for Weather Underground's featured writeups by Dr. Jeff Masters (right), Bob Henson (left), Chris Burt, and other regular contributors.

Nearby

Air Quality

  Air Quality AQ Index Pollutant
Not available.

Snow Depth

Station Depth Elevation

Earthquake Activity

City Distance Mag. Time & Date
Minimum magnitude displayed is 2.5.

Coastal Water Temperatures

Place Temperature

Stations

Nearby Weather Stations

Station Location Temp. Windchill Dew Point Humidity Wind Precip. Elev Updated Type